Time;durP1;ratioP1;P1;durP2;ratioP2;P2;SDS_P1;SDS_P2;PMS_P1;PMS_P2;Temp;Humidity;BMP_temperature;BMP_pressure;BME280_temperature;BME280_humidity;BME280_pressure;Samples;Min_cycle;Max_cycle;Signal;HPM_P1;HPM_P2
2022/06/01 00:02:10;;;;;;;0.33;0.33;;;;;;;15.67;83.91;95288.66;4347229;32;20189;-65
2022/06/01 00:04:36;;;;;;;1.90;0.20;;;;;;;15.45;83.57;95292.38;4339270;32;20257;-64
2022/06/01 00:07:03;;;;;;;0.30;0.30;;;;;;;15.47;83.91;95290.16;4322329;32;20201;-64
2022/06/01 00:09:29;;;;;;;0.20;0.20;;;;;;;15.48;83.27;95293.63;4326334;32;20197;-64
2022/06/01 00:11:56;;;;;;;0.20;0.20;;;;;;;15.26;83.18;95288.56;4341965;32;20189;-64
2022/06/01 00:14:23;;;;;;;0.73;0.43;;;;;;;15.29;83.15;95285.25;4340539;32;20194;-62
2022/06/01 00:16:55;;;;;;;0.10;0.10;;;;;;;15.46;83.85;95285.13;4347087;32;20205;-62
2022/06/01 00:19:22;;;;;;;0.30;0.30;;;;;;;15.28;84.22;95283.69;4326238;32;20243;-63
2022/06/01 00:24:38;;;;;;;0.40;0.40;;;;;;;15.25;83.26;95284.31;4313872;32;20208;-63
2022/06/01 00:27:07;;;;;;;0.20;0.20;;;;;;;15.44;83.29;95285.47;4331054;32;20220;-62
2022/06/01 00:29:34;;;;;;;0.30;0.30;;;;;;;15.48;82.93;95285.59;4342947;32;20226;-63
2022/06/01 00:31:59;;;;;;;0.30;0.30;;;;;;;15.48;83.20;95282.94;4347512;32;20300;-63
2022/06/01 00:34:26;;;;;;;0.03;0.03;;;;;;;15.52;82.93;95278.50;4326690;32;20272;-62
2022/06/01 00:36:54;;;;;;;0.53;0.53;;;;;;;15.61;82.15;95281.91;4305324;33;20189;-63
2022/06/01 00:39:21;;;;;;;0.50;0.43;;;;;;;15.64;82.00;95286.62;4345178;32;20249;-63
2022/06/01 00:41:47;;;;;;;0.10;0.10;;;;;;;15.71;81.60;95286.88;4362172;32;20291;-63
2022/06/01 00:44:13;;;;;;;0.10;0.10;;;;;;;15.53;81.47;95287.31;4345875;32;20231;-63
2022/06/01 00:46:39;;;;;;;0.43;0.33;;;;;;;15.74;82.59;95285.44;4336193;32;20197;-63
2022/06/01 00:49:26;;;;;;;0.70;0.30;;;;;;;15.65;81.87;95288.19;4359406;32;20352;-63
2022/06/01 00:51:52;;;;;;;0.20;0.20;;;;;;;15.41;81.79;95285.31;4345536;32;20192;-63
2022/06/01 00:54:21;;;;;;;0.20;0.20;;;;;;;15.19;81.88;95285.59;4335901;32;20211;-63
2022/06/01 00:57:05;;;;;;;0.20;0.20;;;;;;;15.13;82.57;95283.16;4358103;32;20210;-63
2022/06/01 00:59:35;;;;;;;0.23;0.23;;;;;;;15.21;82.22;95294.09;4351223;32;20194;-63
2022/06/01 01:02:07;;;;;;;0.27;0.27;;;;;;;15.18;83.86;95289.38;4345765;32;20267;-63
2022/06/01 01:04:38;;;;;;;0.60;0.60;;;;;;;15.24;83.92;95290.78;4326243;32;20207;-63
2022/06/01 01:07:26;;;;;;;0.10;0.10;;;;;;;15.39;83.80;95284.84;4339083;32;20256;-63
2022/06/01 01:09:56;;;;;;;0.07;0.07;;;;;;;15.24;82.65;95288.88;4336221;32;20189;-63
2022/06/01 01:12:55;;;;;;;0.10;0.10;;;;;;;15.14;82.62;95291.94;4354592;32;20264;-63
2022/06/01 01:15:14;;;;;;;0.07;0.07;;;;;;;15.21;83.68;95284.19;4345061;32;20181;-63
2022/06/01 01:17:51;;;;;;;0.40;0.40;;;;;;;15.25;83.72;95285.09;4355600;32;20303;-63
2022/06/01 01:20:17;;;;;;;0.20;0.20;;;;;;;15.31;83.18;95288.38;4305885;32;20220;-63
2022/06/01 01:23:17;;;;;;;0.20;0.20;;;;;;;15.35;83.79;95284.75;4349304;32;20185;-63
2022/06/01 01:25:59;;;;;;;0.37;0.37;;;;;;;15.33;82.88;95291.53;4348380;32;20204;-63
2022/06/01 01:28:25;;;;;;;0.20;0.20;;;;;;;15.38;82.48;95283.31;4335904;32;20307;-63
2022/06/01 01:31:23;;;;;;;0.07;0.07;;;;;;;15.29;82.77;95290.59;4336356;32;20249;-63
2022/06/01 01:33:52;;;;;;;0.30;0.30;;;;;;;15.33;82.85;95280.84;4339959;32;20211;-63
2022/06/01 01:36:22;;;;;;;0.07;0.07;;;;;;;15.41;82.76;95290.66;4328923;32;20201;-63
2022/06/01 01:39:01;;;;;;;0.27;0.27;;;;;;;15.45;82.54;95294.25;4343838;32;20197;-63
2022/06/01 01:41:47;;;;;;;0.57;0.57;;;;;;;15.61;82.32;95302.53;4342698;32;20273;-63
2022/06/01 01:44:16;;;;;;;0.70;0.60;;;;;;;15.62;82.28;95304.09;4322619;32;20189;-63
2022/06/01 01:46:47;;;;;;;0.20;0.20;;;;;;;15.53;82.37;95298.78;4345028;32;20197;-63
2022/06/01 01:49:15;;;;;;;0.20;0.20;;;;;;;15.57;81.73;95307.75;4335819;32;20204;-63
2022/06/01 01:51:44;;;;;;;0.70;0.30;;;;;;;15.68;82.27;95300.13;4349797;32;20256;-63
2022/06/01 01:54:42;;;;;;;0.27;0.27;;;;;;;15.67;82.51;95301.22;4337694;32;20247;-63
2022/06/01 01:57:42;;;;;;;0.33;0.33;;;;;;;15.64;81.45;95299.19;4335780;32;20212;-62
2022/06/01 02:00:36;;;;;;;0.20;0.20;;;;;;;15.23;81.73;95307.91;4333027;32;20207;-63
2022/06/01 02:03:39;;;;;;;0.23;0.23;;;;;;;15.31;83.64;95299.88;4343882;32;20227;-63
2022/06/01 02:06:43;;;;;;;0.10;0.10;;;;;;;15.42;82.79;95303.72;4344975;32;20227;-63
2022/06/01 02:09:16;;;;;;;0.33;0.33;;;;;;;15.29;82.84;95309.31;4303706;32;20190;-63
2022/06/01 02:14:55;;;;;;;0.33;0.33;;;;;;;15.46;82.88;95312.66;4308747;32;20199;-62
2022/06/01 02:17:37;;;;;;;0.10;0.10;;;;;;;15.54;82.09;95310.28;4335502;32;20232;-63
2022/06/01 02:20:16;;;;;;;0.20;0.10;;;;;;;15.50;81.18;95306.66;4334429;32;20239;-63
2022/06/01 02:22:43;;;;;;;0.23;0.23;;;;;;;15.53;82.26;95300.69;4326778;32;20247;-63
2022/06/01 02:25:11;;;;;;;0.30;0.30;;;;;;;15.58;82.24;95303.19;4339165;32;20193;-63
2022/06/01 02:27:39;;;;;;;0.00;0.00;;;;;;;15.54;82.30;95296.91;4331031;32;20212;-63
2022/06/01 02:30:14;;;;;;;0.83;0.57;;;;;;;15.56;82.30;95300.84;4313865;33;20216;-63
2022/06/01 02:32:42;;;;;;;0.37;0.27;;;;;;;15.41;81.85;95307.50;4345452;32;20193;-63
2022/06/01 02:35:11;;;;;;;0.40;0.40;;;;;;;15.52;82.56;95305.25;4344139;32;20185;-63
2022/06/01 02:37:43;;;;;;;0.20;0.20;;;;;;;15.54;82.73;95297.69;4330752;32;20204;-63
2022/06/01 02:40:15;;;;;;;0.20;0.10;;;;;;;15.40;82.32;95302.47;4347683;32;20193;-63
2022/06/01 02:42:51;;;;;;;0.20;0.20;;;;;;;15.48;82.07;95304.31;4335705;32;20292;-63
2022/06/01 02:45:23;;;;;;;0.30;0.30;;;;;;;15.36;82.63;95309.59;4335752;32;20215;-63
2022/06/01 02:47:52;;;;;;;0.20;0.20;;;;;;;15.25;82.74;95303.03;4332047;32;20189;-63
2022/06/01 02:50:21;;;;;;;0.20;0.20;;;;;;;15.40;83.53;95305.94;4324385;32;20182;-63
2022/06/01 02:52:56;;;;;;;0.20;0.20;;;;;;;15.33;83.03;95302.22;4348732;32;20216;-63
2022/06/01 02:55:28;;;;;;;0.10;0.10;;;;;;;15.33;82.99;95302.22;4351810;32;20260;-63
2022/06/01 02:57:55;;;;;;;0.10;0.10;;;;;;;15.32;82.99;95300.66;4325591;32;20189;-63
2022/06/01 03:00:29;;;;;;;0.10;0.10;;;;;;;15.24;82.95;95309.50;4350883;32;20231;-63
2022/06/01 03:02:59;;;;;;;0.10;0.10;;;;;;;15.16;84.04;95303.09;4290899;33;20280;-63
2022/06/01 03:05:35;;;;;;;0.30;0.30;;;;;;;15.06;83.35;95303.44;4321666;32;20265;-64
2022/06/01 03:08:04;;;;;;;2.40;0.77;;;;;;;15.10;83.69;95307.84;4347511;32;20208;-63
2022/06/01 03:10:30;;;;;;;0.13;0.13;;;;;;;15.27;83.42;95308.84;4334009;32;20209;-63
2022/06/01 03:12:56;;;;;;;0.20;0.20;;;;;;;15.30;83.11;95316.22;4348410;32;20358;-63
2022/06/01 03:15:25;;;;;;;0.30;0.23;;;;;;;15.42;83.23;95311.75;4348675;32;20267;-63
2022/06/01 03:17:53;;;;;;;0.30;0.30;;;;;;;15.52;82.51;95307.91;4340125;32;20188;-63
2022/06/01 03:20:24;;;;;;;0.40;0.40;;;;;;;15.36;81.48;95307.69;4341748;32;20208;-63
2022/06/01 03:22:50;;;;;;;0.27;0.27;;;;;;;15.44;82.73;95312.19;4332537;32;20209;-63
2022/06/01 03:25:24;;;;;;;0.60;0.60;;;;;;;15.48;82.71;95312.34;4338445;32;20209;-63
2022/06/01 03:28:00;;;;;;;0.10;0.10;;;;;;;15.41;82.94;95306.72;4343532;32;20192;-63
2022/06/01 03:30:28;;;;;;;0.10;0.10;;;;;;;15.34;83.67;95319.81;4326447;32;20217;-63
2022/06/01 03:32:56;;;;;;;0.40;0.40;;;;;;;15.40;82.87;95318.50;4338380;32;20395;-63
2022/06/01 03:35:26;;;;;;;0.50;0.50;;;;;;;15.43;83.19;95323.22;4339365;32;20204;-63
2022/06/01 03:37:54;;;;;;;0.73;0.33;;;;;;;15.41;82.83;95320.06;4338299;32;20200;-63
2022/06/01 03:40:22;;;;;;;0.70;0.50;;;;;;;15.47;82.70;95321.47;4359822;32;20193;-63
2022/06/01 03:42:50;;;;;;;0.33;0.33;;;;;;;15.20;83.01;95330.72;4360486;32;20188;-63
2022/06/01 03:48:02;;;;;;;1.13;0.63;;;;;;;15.15;82.29;95335.50;4346803;32;20226;-63
2022/06/01 03:50:29;;;;;;;0.20;0.20;;;;;;;15.43;83.15;95333.91;4365776;32;20189;-63
2022/06/01 03:52:56;;;;;;;0.40;0.40;;;;;;;15.21;83.15;95332.28;4345899;32;20320;-63
2022/06/01 03:55:23;;;;;;;0.50;0.50;;;;;;;15.39;83.47;95328.41;4369195;32;20283;-63
2022/06/01 03:57:50;;;;;;;1.00;0.57;;;;;;;15.41;82.82;95325.44;4359123;32;20288;-63
2022/06/01 04:00:25;;;;;;;0.30;0.30;;;;;;;15.31;83.27;95328.47;4362237;32;20185;-62
2022/06/01 04:02:53;;;;;;;0.70;0.70;;;;;;;15.41;83.10;95328.09;4359289;32;20335;-63
2022/06/01 04:05:22;;;;;;;0.27;0.27;;;;;;;15.44;82.88;95328.25;4368246;32;20264;-63
2022/06/01 04:07:49;;;;;;;0.20;0.20;;;;;;;15.42;82.63;95327.00;4352028;32;20274;-63
2022/06/01 04:10:17;;;;;;;0.40;0.40;;;;;;;15.45;82.10;95323.69;4333082;32;20286;-63
2022/06/01 04:12:45;;;;;;;0.10;0.10;;;;;;;15.44;83.08;95335.47;4358265;32;20211;-63
2022/06/01 04:15:12;;;;;;;0.33;0.33;;;;;;;15.46;82.57;95335.94;4372737;32;20236;-63
2022/06/01 04:17:39;;;;;;;0.53;0.40;;;;;;;15.52;82.90;95342.69;4352151;32;20192;-63
2022/06/01 04:20:07;;;;;;;0.20;0.20;;;;;;;15.52;82.56;95349.91;4355064;32;20189;-63
2022/06/01 04:22:38;;;;;;;0.30;0.30;;;;;;;15.48;83.07;95347.09;4349695;32;20234;-63
2022/06/01 04:25:03;;;;;;;0.57;0.57;;;;;;;15.59;82.71;95348.31;4359693;32;20190;-63
2022/06/01 04:27:39;;;;;;;0.60;0.60;;;;;;;15.58;82.94;95345.97;4349573;32;20193;-63
2022/06/01 04:30:25;;;;;;;0.77;0.77;;;;;;;15.44;82.64;95363.00;4318515;32;20231;-63
2022/06/01 04:32:56;;;;;;;0.50;0.50;;;;;;;15.50;83.70;95360.16;4301370;32;20201;-63
2022/06/01 04:35:24;;;;;;;0.40;0.40;;;;;;;15.52;83.43;95358.72;4333725;32;20282;-63
2022/06/01 04:37:52;;;;;;;0.57;0.57;;;;;;;15.53;83.41;95359.50;4336976;32;20185;-63
2022/06/01 04:40:22;;;;;;;0.27;0.20;;;;;;;15.46;81.58;95360.00;4334994;32;20215;-63
2022/06/01 04:42:49;;;;;;;1.60;0.70;;;;;;;15.49;83.35;95348.66;4346117;32;20205;-64
2022/06/01 04:45:19;;;;;;;0.60;0.47;;;;;;;15.35;82.81;95353.47;4344868;32;20227;-64
2022/06/01 04:47:51;;;;;;;0.83;0.83;;;;;;;15.40;83.32;95362.06;4344563;32;20235;-63
2022/06/01 04:50:18;;;;;;;0.27;0.27;;;;;;;15.65;83.50;95352.37;4347883;32;20197;-63
2022/06/01 04:52:44;;;;;;;0.43;0.43;;;;;;;15.57;82.14;95365.81;4335868;32;20220;-63
2022/06/01 04:55:11;;;;;;;0.37;0.37;;;;;;;15.65;82.56;95365.75;4343756;32;20205;-63
2022/06/01 04:57:37;;;;;;;0.30;0.30;;;;;;;15.54;82.20;95363.75;4334431;32;20220;-64
2022/06/01 05:00:03;;;;;;;0.23;0.23;;;;;;;15.44;81.60;95365.66;4335414;32;20194;-64
2022/06/01 05:02:32;;;;;;;0.50;0.50;;;;;;;15.50;82.53;95360.16;4344265;32;20247;-63
2022/06/01 05:04:59;;;;;;;0.60;0.60;;;;;;;15.64;82.48;95363.38;4348468;32;20193;-64
2022/06/01 05:07:27;;;;;;;0.40;0.40;;;;;;;15.71;81.81;95361.00;4346581;32;20287;-64
2022/06/01 05:09:55;;;;;;;0.40;0.40;;;;;;;15.76;81.76;95358.91;4346720;32;20186;-64
2022/06/01 05:12:20;;;;;;;0.30;0.30;;;;;;;15.92;81.67;95363.69;4339726;32;20189;-64
2022/06/01 05:14:47;;;;;;;0.43;0.43;;;;;;;15.95;81.12;95366.50;4332485;32;20208;-64
2022/06/01 05:17:14;;;;;;;0.87;0.70;;;;;;;15.80;80.43;95370.50;4337632;32;20207;-64
2022/06/01 05:19:41;;;;;;;0.10;0.10;;;;;;;15.83;80.36;95363.75;4347812;32;20189;-64
2022/06/01 05:22:08;;;;;;;0.40;0.40;;;;;;;15.93;80.33;95359.91;4346219;32;20227;-64
2022/06/01 05:24:36;;;;;;;0.30;0.30;;;;;;;15.98;80.14;95359.72;4327649;32;20232;-64
2022/06/01 05:27:02;;;;;;;0.13;0.13;;;;;;;15.81;79.93;95366.72;4340466;32;20193;-64
2022/06/01 05:29:29;;;;;;;0.67;0.67;;;;;;;15.98;80.32;95362.41;4341371;32;20284;-64
2022/06/01 05:31:55;;;;;;;0.57;0.57;;;;;;;16.03;80.85;95364.84;4334363;32;20266;-64
2022/06/01 05:34:21;;;;;;;1.43;0.73;;;;;;;16.06;80.58;95359.63;4358463;32;20238;-64
2022/06/01 05:36:47;;;;;;;0.10;0.10;;;;;;;16.13;81.32;95367.16;4353804;32;20242;-65
2022/06/01 05:39:13;;;;;;;0.30;0.30;;;;;;;16.14;80.42;95360.69;4349529;32;20189;-64
2022/06/01 05:41:41;;;;;;;1.50;1.13;;;;;;;16.23;80.34;95350.69;4350847;32;20216;-63
2022/06/01 05:44:07;;;;;;;2.70;1.27;;;;;;;16.17;80.03;95362.72;4331207;32;20215;-64
2022/06/01 05:46:35;;;;;;;0.33;0.33;;;;;;;16.13;79.57;95361.78;4348805;32;20239;-64
2022/06/01 05:49:02;;;;;;;0.67;0.67;;;;;;;16.27;79.15;95367.66;4352468;32;20228;-64
2022/06/01 05:51:29;;;;;;;0.13;0.13;;;;;;;16.31;79.46;95373.94;4358650;32;20257;-64
2022/06/01 05:53:55;;;;;;;0.43;0.43;;;;;;;16.39;77.96;95365.06;4340911;32;20261;-64
2022/06/01 05:56:25;;;;;;;0.67;0.67;;;;;;;16.43;78.97;95370.50;4346504;32;20192;-64
2022/06/01 05:58:51;;;;;;;0.20;0.20;;;;;;;16.48;78.08;95364.94;4353585;32;20201;-64
2022/06/01 06:01:22;;;;;;;0.40;0.40;;;;;;;16.26;76.80;95370.66;4364043;32;20261;-63
2022/06/01 06:03:49;;;;;;;0.30;0.30;;;;;;;16.31;77.81;95367.78;4351799;32;20188;-63
2022/06/01 06:06:20;;;;;;;0.60;0.60;;;;;;;16.40;77.73;95366.63;4337131;32;20215;-64
2022/06/01 06:09:03;;;;;;;0.23;0.23;;;;;;;16.56;77.65;95369.47;4337230;32;20262;-64
2022/06/01 06:11:36;;;;;;;0.30;0.30;;;;;;;16.58;77.99;95361.88;4342161;32;20248;-64
2022/06/01 06:14:03;;;;;;;1.07;1.07;;;;;;;16.68;77.08;95366.84;4349572;32;20204;-64
2022/06/01 06:16:31;;;;;;;0.30;0.30;;;;;;;16.66;77.08;95362.91;4355913;32;20201;-64
2022/06/01 06:18:58;;;;;;;0.10;0.10;;;;;;;16.81;76.29;95368.44;4354204;32;20246;-64
2022/06/01 06:21:26;;;;;;;2.07;1.40;;;;;;;16.89;76.81;95372.13;4365841;32;20197;-63
2022/06/01 06:23:53;;;;;;;0.70;0.70;;;;;;;16.90;76.70;95367.56;4359833;32;20242;-63
2022/06/01 06:26:21;;;;;;;0.70;0.67;;;;;;;16.94;77.17;95371.16;4345509;32;20254;-63
2022/06/01 06:28:47;;;;;;;1.10;1.07;;;;;;;17.11;76.69;95366.37;4361159;32;20193;-63
2022/06/01 06:31:14;;;;;;;1.33;0.67;;;;;;;17.18;74.91;95368.50;4375407;32;20197;-63
2022/06/01 06:33:40;;;;;;;0.40;0.40;;;;;;;17.30;74.93;95367.72;4365118;32;20205;-63
2022/06/01 06:36:08;;;;;;;0.17;0.17;;;;;;;17.33;74.72;95364.38;4350797;32;20192;-64
2022/06/01 06:38:36;;;;;;;0.60;0.57;;;;;;;17.42;72.17;95367.75;4342069;32;20188;-63
2022/06/01 06:41:17;;;;;;;0.67;0.67;;;;;;;17.55;72.89;95366.63;4356418;32;20233;-63
2022/06/01 06:43:44;;;;;;;0.33;0.33;;;;;;;17.52;71.59;95361.91;4373715;32;20222;-63
2022/06/01 06:46:16;;;;;;;0.27;0.27;;;;;;;17.54;71.80;95367.75;4344381;32;20196;-65
2022/06/01 06:48:45;;;;;;;0.80;0.80;;;;;;;17.66;71.01;95364.31;4347471;32;20252;-62
2022/06/01 06:51:12;;;;;;;0.20;0.20;;;;;;;17.82;69.57;95370.53;4355425;32;20200;-63
2022/06/01 06:53:39;;;;;;;0.40;0.40;;;;;;;17.89;69.29;95369.97;4361428;32;20226;-64
2022/06/01 06:56:05;;;;;;;0.43;0.43;;;;;;;18.01;69.37;95368.06;4349114;32;20196;-64
2022/06/01 06:58:33;;;;;;;1.20;0.63;;;;;;;18.13;69.51;95364.53;4352264;32;20238;-60
2022/06/01 07:00:59;;;;;;;0.53;0.53;;;;;;;18.07;69.01;95360.53;4340439;32;20265;-63
2022/06/01 07:03:24;;;;;;;0.87;0.60;;;;;;;18.12;68.78;95365.66;4365852;32;20264;-63
2022/06/01 07:06:13;;;;;;;0.20;0.20;;;;;;;18.10;68.34;95367.91;4340785;32;20200;-60
2022/06/01 07:08:45;;;;;;;0.37;0.37;;;;;;;18.28;67.49;95358.47;4342430;32;20230;-63
2022/06/01 07:11:12;;;;;;;0.67;0.67;;;;;;;18.36;66.26;95370.19;4320463;32;20205;-62
2022/06/01 07:13:39;;;;;;;0.80;0.80;;;;;;;18.63;67.17;95366.75;4340490;32;20249;-61
2022/06/01 07:16:36;;;;;;;0.70;0.70;;;;;;;18.79;66.53;95361.41;4341379;32;20209;-61
2022/06/01 07:19:05;;;;;;;2.23;0.87;;;;;;;18.81;65.92;95359.16;4323966;32;20201;-59
2022/06/01 07:21:36;;;;;;;2.37;1.60;;;;;;;18.75;64.79;95355.94;4382821;32;20212;-61
2022/06/01 07:24:05;;;;;;;0.73;0.73;;;;;;;18.72;65.94;95363.88;4375210;32;20192;-61
2022/06/01 07:26:39;;;;;;;0.40;0.40;;;;;;;18.74;nan;95356.25;4372387;32;20196;-60
2022/06/01 07:29:06;;;;;;;0.40;0.40;;;;;;;18.80;63.26;95361.06;4355838;32;20192;-64
2022/06/01 07:31:32;;;;;;;0.60;0.60;;;;;;;18.72;65.35;95358.50;4376741;32;20200;-63
2022/06/01 07:33:58;;;;;;;0.67;0.67;;;;;;;18.72;65.03;95358.50;4337707;32;20276;-64
2022/06/01 07:36:26;;;;;;;0.83;0.83;;;;;;;18.75;65.08;95358.63;4343599;32;20226;-60
2022/06/01 07:44:34;;;;;;;0.30;0.30;;;;;;;18.82;65.63;95355.34;4324848;32;20227;-63
2022/06/01 07:47:04;;;;;;;0.47;0.47;;;;;;;18.83;65.51;95359.59;4348617;32;20249;-60
2022/06/01 07:49:31;;;;;;;0.33;0.33;;;;;;;18.91;66.66;95349.81;4350277;32;20189;-62
2022/06/01 07:51:56;;;;;;;0.93;0.80;;;;;;;18.93;66.92;95353.69;4373475;32;20201;-62
2022/06/01 07:54:25;;;;;;;0.53;0.53;;;;;;;19.03;65.59;95350.50;4356284;32;20406;-62
2022/06/01 07:56:51;;;;;;;0.20;0.20;;;;;;;19.08;66.80;95346.78;4358880;32;20191;-61
2022/06/01 07:59:18;;;;;;;0.57;0.57;;;;;;;19.07;67.28;95347.91;4371914;32;20192;-61
2022/06/01 08:01:44;;;;;;;0.40;0.40;;;;;;;19.29;66.16;95349.22;4361128;32;20189;-61
2022/06/01 08:04:10;;;;;;;0.40;0.40;;;;;;;19.27;66.50;95354.16;4362817;32;20264;-62
2022/06/01 08:06:38;;;;;;;0.33;0.23;;;;;;;19.33;66.26;95348.16;4369599;32;20230;-62
2022/06/01 08:09:05;;;;;;;0.57;0.33;;;;;;;19.38;61.06;95341.72;4361394;32;20185;-66
2022/06/01 08:14:19;;;;;;;0.30;0.30;;;;;;;19.56;61.34;95337.56;4349013;32;20212;-62
2022/06/01 08:16:45;;;;;;;0.37;0.37;;;;;;;19.46;59.68;95348.84;4375801;32;20197;-61
2022/06/01 08:19:12;;;;;;;0.33;0.33;;;;;;;19.41;55.37;95346.41;4357453;32;20211;-61
2022/06/01 08:21:39;;;;;;;0.40;0.40;;;;;;;19.52;56.55;95336.72;4354251;32;20252;-61
2022/06/01 08:24:09;;;;;;;0.40;0.40;;;;;;;19.63;58.88;95336.97;4377214;32;20207;-61
2022/06/01 08:26:35;;;;;;;0.20;0.20;;;;;;;19.68;56.67;95337.47;4353354;32;20261;-61
2022/06/01 08:29:02;;;;;;;0.17;0.17;;;;;;;19.73;54.60;95342.59;4375113;32;20192;-61
2022/06/01 08:31:34;;;;;;;0.23;0.23;;;;;;;19.78;55.46;95342.31;4360008;32;20268;-62
2022/06/01 08:34:03;;;;;;;0.40;0.40;;;;;;;19.83;54.62;95339.34;4341436;32;20208;-62
2022/06/01 08:36:28;;;;;;;0.40;0.40;;;;;;;19.80;52.93;95342.72;4358248;32;20236;-62
2022/06/01 08:38:56;;;;;;;0.67;0.60;;;;;;;19.70;53.91;95332.53;4324864;32;21376;-62
2022/06/01 08:41:29;;;;;;;1.00;0.60;;;;;;;19.69;52.78;95340.94;4346077;32;20200;-62
2022/06/01 08:43:59;;;;;;;0.37;0.37;;;;;;;19.62;52.15;95336.19;4342427;32;20287;-62
2022/06/01 08:46:29;;;;;;;0.37;0.37;;;;;;;19.67;53.33;95341.31;4353056;32;20268;-61
2022/06/01 08:49:06;;;;;;;0.10;0.10;;;;;;;19.80;50.19;95348.12;4372909;32;20193;-61
2022/06/01 08:51:33;;;;;;;0.30;0.30;;;;;;;19.74;49.89;95341.47;4353334;32;20256;-61
2022/06/01 08:54:00;;;;;;;0.10;0.10;;;;;;;19.73;51.54;95353.38;4374441;32;20181;-61
2022/06/01 08:56:45;;;;;;;0.30;0.30;;;;;;;19.71;49.41;95344.84;4340356;32;20284;-61
2022/06/01 08:59:40;;;;;;;0.20;0.20;;;;;;;19.77;49.81;95348.03;4374380;32;20248;-61
2022/06/01 09:02:46;;;;;;;0.93;0.83;;;;;;;19.61;49.81;95348.06;4357010;32;20200;-63
2022/06/01 09:05:31;;;;;;;0.57;0.57;;;;;;;19.60;49.90;95343.81;4353382;32;20200;-61
2022/06/01 09:08:08;;;;;;;0.20;0.20;;;;;;;19.67;50.03;95340.53;4352745;32;20215;-60
2022/06/01 09:10:51;;;;;;;0.37;0.37;;;;;;;19.65;49.13;95335.47;4360860;32;20185;-61
2022/06/01 09:13:32;;;;;;;1.27;0.83;;;;;;;19.82;48.74;95328.94;4373266;32;20192;-61
2022/06/01 09:16:17;;;;;;;0.50;0.50;;;;;;;19.89;48.00;95337.16;4375079;32;20299;-61
2022/06/01 09:18:50;;;;;;;0.40;0.40;;;;;;;19.93;47.02;95335.34;4373940;32;20243;-61
2022/06/01 09:24:29;;;;;;;0.40;0.40;;;;;;;19.84;49.23;95335.53;4364740;32;20231;-61
2022/06/01 09:27:03;;;;;;;5.47;2.13;;;;;;;19.87;48.44;95332.12;4349584;32;20264;-60
2022/06/01 09:29:33;;;;;;;0.67;0.67;;;;;;;20.11;48.46;95324.94;4319179;32;20182;-59
2022/06/01 09:32:40;;;;;;;0.30;0.30;;;;;;;20.19;49.08;95332.78;4320486;32;20192;-61
2022/06/01 09:35:10;;;;;;;0.20;0.20;;;;;;;20.32;48.80;95328.06;4310920;32;20207;-61
2022/06/01 09:37:40;;;;;;;0.57;0.57;;;;;;;20.46;48.00;95330.28;4352690;32;20189;-61
2022/06/01 09:40:29;;;;;;;1.17;1.10;;;;;;;20.48;48.24;95333.38;4343744;32;20188;-60
2022/06/01 09:43:03;;;;;;;0.37;0.37;;;;;;;20.47;49.39;95338.00;4344936;32;20258;-60
2022/06/01 09:45:53;;;;;;;2.73;0.57;;;;;;;20.69;47.23;95338.41;4345911;32;20295;-62
2022/06/01 09:48:44;;;;;;;0.33;0.33;;;;;;;20.84;52.03;95332.91;4332221;32;20197;-63
2022/06/01 09:51:21;;;;;;;0.60;0.47;;;;;;;20.74;47.62;95348.91;4300416;32;20251;-61
2022/06/01 09:54:34;;;;;;;0.30;0.30;;;;;;;20.54;48.52;95338.16;4310873;32;20188;-61
2022/06/01 09:57:32;;;;;;;0.33;0.33;;;;;;;20.57;48.57;95340.12;4333555;32;20203;-63
2022/06/01 10:08:30;;;;;;;0.30;0.30;;;;;;;20.50;50.01;95331.91;4333812;32;20241;-62
2022/06/01 10:11:00;;;;;;;0.20;0.20;;;;;;;20.67;48.93;95340.69;4335245;32;20210;-62
2022/06/01 10:13:39;;;;;;;5.40;0.90;;;;;;;20.66;47.50;95336.41;4345284;32;20275;-62
2022/06/01 10:16:15;;;;;;;1.87;1.77;;;;;;;20.64;47.92;95336.00;4342324;32;20211;-63
2022/06/01 10:18:52;;;;;;;0.70;0.57;;;;;;;20.61;48.62;95337.47;4341472;32;20354;-62
2022/06/01 10:21:25;;;;;;;0.60;0.53;;;;;;;20.56;47.05;95340.50;4349925;32;20252;-62
2022/06/01 10:24:08;;;;;;;0.30;0.30;;;;;;;20.47;47.02;95332.59;4362310;32;20207;-62
2022/06/01 10:26:39;;;;;;;0.50;0.50;;;;;;;20.29;49.50;95325.28;4322406;32;20248;-62
2022/06/01 10:29:12;;;;;;;0.20;0.20;;;;;;;20.29;49.43;95333.38;4332632;32;20265;-65
2022/06/01 10:31:45;;;;;;;0.20;0.20;;;;;;;20.26;51.81;95337.56;4330406;32;20189;-62
2022/06/01 10:34:48;;;;;;;2.30;0.70;;;;;;;20.30;48.91;95337.63;4341201;32;20231;-62
2022/06/01 10:37:40;;;;;;;0.27;0.27;;;;;;;20.19;50.43;95340.09;4323534;32;20197;-62
2022/06/01 10:40:19;;;;;;;0.40;0.40;;;;;;;20.27;48.24;95344.50;4300176;33;20206;-62
2022/06/01 10:43:18;;;;;;;0.83;0.83;;;;;;;20.24;50.50;95345.19;4339466;32;20219;-62
2022/06/01 10:46:01;;;;;;;0.30;0.30;;;;;;;20.13;50.34;95355.78;4309360;32;20216;-62
2022/06/01 10:48:36;;;;;;;0.60;0.60;;;;;;;20.26;47.54;95337.56;4333273;32;20311;-62
2022/06/01 10:51:13;;;;;;;2.37;1.80;;;;;;;20.16;49.44;95341.56;4341267;32;20295;-62
2022/06/01 10:54:04;;;;;;;0.40;0.40;;;;;;;20.16;50.30;95338.88;4280087;33;20203;-61
2022/06/01 10:56:33;;;;;;;2.37;2.17;;;;;;;20.15;51.55;95347.34;4328188;32;20200;-61
2022/06/01 10:59:12;;;;;;;0.53;0.53;;;;;;;20.12;50.70;95342.66;4322010;32;20189;-61
2022/06/01 11:02:09;;;;;;;24.63;15.97;;;;;;;20.31;48.46;95345.34;4316233;32;20256;-61
2022/06/01 11:05:13;;;;;;;1.03;1.03;;;;;;;20.41;47.04;95339.41;4324291;32;20182;-61
2022/06/01 11:07:58;;;;;;;0.40;0.40;;;;;;;20.72;47.79;95343.09;4315179;32;20227;-61
2022/06/01 11:10:51;;;;;;;31.17;12.20;;;;;;;20.76;46.41;95333.94;4329419;32;20197;-60
2022/06/01 11:13:55;;;;;;;0.77;0.77;;;;;;;20.96;47.99;95337.37;4306042;32;20190;-64
2022/06/01 11:16:58;;;;;;;0.60;0.60;;;;;;;21.09;48.33;95330.66;4327877;32;20292;-62
2022/06/01 11:19:49;;;;;;;0.90;0.90;;;;;;;21.20;47.66;95323.53;4336071;32;20212;-62
2022/06/01 11:22:41;;;;;;;0.50;0.50;;;;;;;21.17;47.67;95316.16;4335479;32;20189;-62
2022/06/01 11:25:41;;;;;;;0.57;0.57;;;;;;;21.22;46.84;95321.25;4254105;33;20262;-62
2022/06/01 11:28:28;;;;;;;0.23;0.23;;;;;;;21.13;45.74;95318.00;4261157;33;20207;-63
2022/06/01 11:31:18;;;;;;;0.10;0.10;;;;;;;21.04;45.84;95317.44;4263771;33;20257;-62
2022/06/01 11:34:14;;;;;;;0.20;0.20;;;;;;;20.96;45.93;95326.56;4256571;33;20246;-62
2022/06/01 11:37:03;;;;;;;0.20;0.20;;;;;;;20.90;47.42;95319.91;4249708;33;20253;-61
2022/06/01 11:39:47;;;;;;;0.30;0.30;;;;;;;20.95;48.48;95329.63;4262617;33;20344;-62
2022/06/01 11:42:30;;;;;;;0.67;0.67;;;;;;;20.99;48.68;95325.09;4270927;33;20237;-62
2022/06/01 11:45:21;;;;;;;0.30;0.30;;;;;;;20.88;46.38;95314.88;4270479;33;20273;-62
2022/06/01 11:48:07;;;;;;;0.50;0.50;;;;;;;20.78;47.16;95309.31;4255285;33;20249;-62
2022/06/01 11:51:12;;;;;;;0.50;0.50;;;;;;;20.63;49.30;95310.16;4278816;33;20213;-63
2022/06/01 11:54:00;;;;;;;0.83;0.83;;;;;;;20.91;49.46;95308.00;4256442;33;20214;-62
2022/06/01 11:56:28;;;;;;;1.07;1.07;;;;;;;21.08;47.68;95302.09;4258261;33;20312;-62
2022/06/01 11:59:29;;;;;;;0.37;0.20;;;;;;;21.18;47.76;95298.03;4309328;32;20313;-65
2022/06/01 12:02:50;;;;;;;1.17;0.73;;;;;;;21.35;47.53;95296.78;4354482;32;20347;-60
2022/06/01 12:05:35;;;;;;;0.10;0.10;;;;;;;21.28;45.67;95313.63;4339645;32;20192;-64
2022/06/01 12:08:29;;;;;;;0.33;0.33;;;;;;;21.27;44.29;95296.66;4324538;32;20247;-61
2022/06/01 12:10:58;;;;;;;1.00;0.90;;;;;;;21.31;47.41;95293.25;4300508;32;20196;-63
2022/06/01 12:13:30;;;;;;;0.60;0.60;;;;;;;21.41;45.99;95289.91;4348817;32;20243;-62
2022/06/01 12:16:25;;;;;;;0.27;0.27;;;;;;;21.41;46.55;95287.22;4325990;32;20298;-62
2022/06/01 12:19:29;;;;;;;0.30;0.30;;;;;;;21.42;47.26;95277.97;4339583;32;20190;-62
2022/06/01 12:21:57;;;;;;;0.30;0.30;;;;;;;21.42;47.10;95281.44;4329287;32;20314;-63
2022/06/01 12:30:21;;;;;;;0.47;0.47;;;;;;;21.48;45.87;95266.50;4333067;32;20207;-62
2022/06/01 12:33:03;;;;;;;0.93;0.93;;;;;;;21.47;45.90;95267.66;4339782;32;20208;-62
2022/06/01 12:35:41;;;;;;;6.70;0.97;;;;;;;21.55;46.16;95265.84;4359277;32;20193;-62
2022/06/01 12:38:28;;;;;;;0.20;0.20;;;;;;;21.54;46.82;95269.69;4332046;32;20204;-64
2022/06/01 12:41:18;;;;;;;0.30;0.30;;;;;;;21.68;46.08;95267.16;4354025;32;20201;-60
2022/06/01 12:43:54;;;;;;;0.10;0.10;;;;;;;21.59;45.89;95253.94;4342343;32;20200;-60